Terre Haute, IN (47805)

9:14 AM EST on February 19, 2017 (GMT -0500)
Shrine Hill | | Change Station

Elev 594 ft 39.51 °N, 87.35 °W | Updated 60 seconds ago

Overcast
Overcast
51.0 °F
Feels Like 51.0 °F
N
0.0
Wind Variable Wind from SSW

Today
High -- | Low -- °F
--% Chance of Precip.
Yesterday
High -- | Low -- °F
Precip. -- in
Pressure 30.07 in
Visibility 6.0 miles
Clouds Overcast 900 ft
Dew Point 46 °F
Humidity 83%
Rainfall 0.00 in
Snow Depth Not available.
7:36 AM 6:30 PM
Last Quarter, 43% visible
METAR KHUF 191353Z 00000KT 6SM HZ OVC009 11/08 A3007 RMK AO2 SLP182 T01060078
Pressure 30.07 in
Visibility 6.0 miles
Clouds Overcast 900 ft
Dew Point 46 °F
Humidity 83%
Rainfall 0.00 in
Snow Depth Not available.
7:36 AM 6:30 PM
Last Quarter, 43% visible
METAR KHUF 191353Z 00000KT 6SM HZ OVC009 11/08 A3007 RMK AO2 SLP182 T01060078

Get Your Daily Forecast Email!

Thanks for signing up!

Be on the lookout for a verification email in your inbox.

You'll start receiving the daily forecast at 8 AM.

×

10-Day Weather Forecast

Almanac

Astronomy

Feb. 19, 2017 Rise Set
Actual Time
Civil Twilight
Nautical Twilight
Astronomical Twilight
Moon
Length of Visible Light
Length of Day
Tomorrow will be .
, % of the Moon is Illuminated

Today's Extremes

State Highs State Lows

Community

WunderPhotos

Upload Photos

1,962,540 photos uploaded!

WunderBlog® & News

Nearby

Air Quality

  Air Quality AQ Index Pollutant
Not available.

Snow Depth

Station Depth Elevation

Earthquake Activity

City Distance Mag. Time & Date
Minimum magnitude displayed is 2.5.

Coastal Water Temperatures

Place Temperature

Stations

Nearby Weather Stations

Station Location Temp. Windchill Dew Point Humidity Wind Precip. Elev Updated Type
                   

Watches & Warnings

There are currently no watches in effect.